Time;durP1;ratioP1;P1;durP2;ratioP2;P2;SDS_P1;SDS_P2;PMS_P1;PMS_P2;Temp;Humidity;BMP_temperature;BMP_pressure;BME280_temperature;BME280_humidity;BME280_pressure;Samples;Min_cycle;Max_cycle;Signal;HPM_P1;HPM_P2
2024/03/29 00:02:03;;;;;;;26.30;12.10;;;;;;;15.98;53.05;98990.65;108042;1254;72172;-68
2024/03/29 00:04:30;;;;;;;30.10;12.70;;;;;;;16.01;52.94;98989.77;108066;1253;61115;-69
2024/03/29 00:06:58;;;;;;;22.50;11.60;;;;;;;16.13;52.67;98985.39;108051;1254;61102;-66
2024/03/29 00:09:25;;;;;;;29.00;12.10;;;;;;;16.08;52.48;98975.55;107978;1253;75000;-66
2024/03/29 00:11:52;;;;;;;26.70;11.90;;;;;;;16.02;52.38;98966.84;108077;1254;70509;-69
2024/03/29 00:14:19;;;;;;;29.80;13.10;;;;;;;15.91;52.61;98961.65;108021;1254;72433;-66
2024/03/29 00:16:47;;;;;;;27.10;13.10;;;;;;;15.69;52.90;98957.29;108019;1254;61226;-66
2024/03/29 00:19:14;;;;;;;32.30;12.80;;;;;;;15.56;52.98;98955.06;108070;1254;61452;-68
2024/03/29 00:21:41;;;;;;;30.80;12.40;;;;;;;15.51;52.80;98960.97;108189;1254;73431;-65
2024/03/29 00:24:09;;;;;;;28.60;13.90;;;;;;;15.51;52.62;98966.46;108204;1254;70049;-67
2024/03/29 00:26:36;;;;;;;26.00;14.00;;;;;;;15.35;52.77;98974.25;108169;1254;71453;-67
2024/03/29 00:29:03;;;;;;;32.30;15.10;;;;;;;15.21;52.92;98971.90;108127;1254;61374;-65
2024/03/29 00:31:30;;;;;;;31.30;15.60;;;;;;;15.13;53.91;98967.00;108178;1254;61337;-68
2024/03/29 00:33:58;;;;;;;32.90;14.20;;;;;;;15.10;55.01;98966.13;108112;1253;74703;-68
2024/03/29 00:36:25;;;;;;;33.70;16.00;;;;;;;15.21;55.49;98972.25;108050;1253;68744;-65
2024/03/29 00:38:52;;;;;;;32.30;15.10;;;;;;;15.36;55.75;98968.48;108156;1254;70404;-65
2024/03/29 00:41:19;;;;;;;33.70;14.30;;;;;;;15.45;55.60;98967.48;108121;1254;61128;-68
2024/03/29 00:43:48;;;;;;;30.20;15.30;;;;;;;15.62;55.36;98959.62;108191;1253;61270;-68
2024/03/29 00:46:15;;;;;;;28.80;14.10;;;;;;;15.56;55.63;98956.52;108148;1254;73413;-67
2024/03/29 00:48:45;;;;;;;28.90;14.30;;;;;;;15.58;55.67;98956.39;108170;1254;72045;-70
2024/03/29 00:51:12;;;;;;;27.90;13.10;;;;;;;15.52;56.49;98953.82;108145;1256;71398;-68
2024/03/29 00:53:39;;;;;;;30.50;13.50;;;;;;;15.48;56.62;98962.73;108170;1252;61109;-66
2024/03/29 00:56:06;;;;;;;31.20;14.20;;;;;;;15.62;56.30;98964.02;108180;1253;61974;-68
2024/03/29 00:58:34;;;;;;;28.30;13.60;;;;;;;15.62;56.15;98965.65;108176;1254;73919;-65
2024/03/29 01:01:01;;;;;;;33.70;15.20;;;;;;;15.50;56.23;98967.98;108220;1252;68894;-69
2024/03/29 01:03:31;;;;;;;32.50;15.50;;;;;;;15.40;56.48;98972.21;108182;1253;71751;-68
2024/03/29 01:05:58;;;;;;;31.30;15.00;;;;;;;15.26;56.75;98975.02;108078;1254;63059;-69
2024/03/29 01:08:25;;;;;;;27.80;13.70;;;;;;;15.39;56.36;98972.88;108178;1254;61214;-67
2024/03/29 01:10:53;;;;;;;29.40;13.30;;;;;;;15.44;56.51;98974.27;108162;1252;74571;-68
2024/03/29 01:13:20;;;;;;;31.90;15.00;;;;;;;15.53;56.39;98971.05;108137;1254;70576;-68
2024/03/29 01:15:47;;;;;;;24.10;11.90;;;;;;;15.59;56.35;98969.55;108124;1253;75316;-67
2024/03/29 01:18:14;;;;;;;22.50;12.10;;;;;;;15.58;56.47;98973.02;108057;1253;61118;-68
2024/03/29 01:20:42;;;;;;;28.90;14.10;;;;;;;15.59;56.44;98973.99;108137;1253;60508;-68
2024/03/29 01:23:10;;;;;;;27.50;14.10;;;;;;;15.73;56.20;98970.65;108215;1254;74586;-67
2024/03/29 01:25:37;;;;;;;29.90;12.70;;;;;;;15.72;56.07;98972.66;108180;1256;68878;-66
2024/03/29 01:28:05;;;;;;;26.50;12.70;;;;;;;15.65;56.11;98973.21;108137;1253;72041;-67
2024/03/29 01:30:32;;;;;;;25.80;11.60;;;;;;;15.53;56.29;98976.20;108124;1254;61246;-68
2024/03/29 01:33:00;;;;;;;33.20;13.00;;;;;;;15.42;56.40;98975.81;108123;1254;61074;-67
2024/03/29 01:35:27;;;;;;;23.50;11.80;;;;;;;15.47;56.31;98976.83;108207;1251;73425;-67
2024/03/29 01:37:54;;;;;;;21.10;12.30;;;;;;;15.46;56.14;98980.08;108205;1251;70296;-68
2024/03/29 01:40:21;;;;;;;22.80;11.90;;;;;;;15.53;55.88;98979.55;108261;1253;72687;-68
2024/03/29 01:42:53;;;;;;;30.10;12.00;;;;;;;15.53;55.68;98980.79;108289;1251;61057;-68
2024/03/29 01:45:20;;;;;;;26.10;11.80;;;;;;;15.54;55.39;98980.04;108312;1251;61167;-68
2024/03/29 01:47:48;;;;;;;35.00;14.70;;;;;;;15.58;55.20;98980.77;108299;1251;73377;-67
2024/03/29 01:50:15;;;;;;;29.60;15.80;;;;;;;15.40;55.52;98977.54;108076;1251;69005;-67
2024/03/29 01:52:42;;;;;;;37.80;18.90;;;;;;;15.45;55.59;98972.60;108176;1251;72455;-69
2024/03/29 01:55:10;;;;;;;33.20;16.70;;;;;;;15.49;55.68;98972.60;108067;1251;61214;-68
2024/03/29 01:57:37;;;;;;;39.40;18.10;;;;;;;15.54;55.68;98968.35;108056;1252;59605;-68
2024/03/29 02:00:06;;;;;;;41.20;19.30;;;;;;;15.47;55.97;98969.59;108124;1251;73470;-68
2024/03/29 02:02:33;;;;;;;52.70;24.20;;;;;;;15.51;55.99;98969.67;108360;1251;69172;-67
2024/03/29 02:05:00;;;;;;;49.40;21.30;;;;;;;15.58;55.63;98970.84;108327;1251;72936;-67
2024/03/29 02:07:28;;;;;;;40.70;17.90;;;;;;;15.54;55.81;98974.71;108066;1251;61164;-68
2024/03/29 02:09:55;;;;;;;37.30;16.20;;;;;;;15.50;56.28;98979.60;108340;1251;61286;-68
2024/03/29 02:12:22;;;;;;;31.00;14.70;;;;;;;15.55;56.15;98977.98;108273;1251;74575;-67
2024/03/29 02:14:50;;;;;;;34.90;15.00;;;;;;;15.50;56.58;98979.99;108335;1251;69960;-67
2024/03/29 02:17:17;;;;;;;36.60;15.80;;;;;;;15.49;56.54;98976.31;108221;1251;72671;-67
2024/03/29 02:19:44;;;;;;;30.50;15.10;;;;;;;15.51;56.74;98983.64;108273;1251;61144;-67
2024/03/29 02:22:12;;;;;;;40.60;15.50;;;;;;;15.44;56.86;98982.73;108264;1251;61349;-66
2024/03/29 02:24:39;;;;;;;40.80;19.00;;;;;;;15.38;56.94;98979.85;108302;1251;73263;-68
2024/03/29 02:27:06;;;;;;;39.00;17.00;;;;;;;15.35;57.23;98988.19;108233;1257;69904;-69
2024/03/29 02:29:35;;;;;;;48.70;19.40;;;;;;;15.44;56.84;98989.63;108261;1251;74912;-67
2024/03/29 02:32:04;;;;;;;43.20;21.30;;;;;;;15.48;56.61;98987.56;108261;1251;62451;-67
2024/03/29 02:34:31;;;;;;;50.00;24.80;;;;;;;15.40;56.71;98988.86;108257;1256;61596;-65
2024/03/29 02:36:59;;;;;;;50.20;24.10;;;;;;;15.42;56.61;98980.75;108243;1251;74611;-67
2024/03/29 02:39:26;;;;;;;56.70;25.60;;;;;;;15.49;56.28;98979.67;108257;1251;71626;-70
2024/03/29 02:41:54;;;;;;;43.40;20.70;;;;;;;15.55;56.04;98975.69;108280;1256;72600;-66
2024/03/29 02:44:21;;;;;;;54.00;23.80;;;;;;;15.64;55.55;98974.52;108264;1251;61205;-68
2024/03/29 02:46:49;;;;;;;43.60;19.90;;;;;;;15.63;55.56;98971.73;108298;1251;60568;-68
2024/03/29 02:49:16;;;;;;;50.10;22.30;;;;;;;15.50;55.92;98973.39;108278;1251;73748;-67
2024/03/29 02:51:44;;;;;;;40.00;19.80;;;;;;;15.59;55.62;98971.30;108316;1251;69074;-70
2024/03/29 02:54:12;;;;;;;37.80;19.80;;;;;;;15.45;55.93;98973.08;108344;1251;72694;-67
2024/03/29 02:56:39;;;;;;;44.90;21.70;;;;;;;15.46;55.73;98970.89;108337;1251;60710;-71
2024/03/29 02:59:06;;;;;;;41.90;21.60;;;;;;;15.54;55.55;98970.48;108290;1251;59137;-68
2024/03/29 03:01:34;;;;;;;43.70;23.20;;;;;;;15.50;55.51;98969.86;108354;1251;73640;-68
2024/03/29 03:04:01;;;;;;;37.60;20.80;;;;;;;15.51;55.34;98970.88;108283;1251;70479;-67
2024/03/29 03:06:28;;;;;;;39.10;20.20;;;;;;;15.45;55.45;98970.98;108302;1251;72422;-68
2024/03/29 03:11:41;;;;;;;55.50;28.40;;;;;;;15.47;55.24;98970.64;108264;1256;61230;-68
2024/03/29 03:14:09;;;;;;;72.40;35.40;;;;;;;15.59;54.90;98969.73;108209;1251;73484;-69
2024/03/29 03:16:36;;;;;;;65.50;33.00;;;;;;;15.49;54.94;98968.16;108244;1251;69168;-68
2024/03/29 03:19:03;;;;;;;45.70;24.90;;;;;;;15.53;54.91;98968.93;108317;1251;73158;-67
2024/03/29 03:21:31;;;;;;;38.80;18.30;;;;;;;15.44;54.94;98973.37;108349;1254;61215;-68
2024/03/29 03:23:58;;;;;;;30.60;15.50;;;;;;;15.46;54.84;98976.21;108259;1251;61250;-69
2024/03/29 03:26:25;;;;;;;29.20;12.90;;;;;;;15.40;54.99;98976.14;108236;1251;73388;-68
2024/03/29 03:28:52;;;;;;;33.80;13.10;;;;;;;15.37;54.84;98981.14;108288;1251;69905;-70
2024/03/29 03:31:20;;;;;;;33.10;13.30;;;;;;;15.32;55.08;98982.71;108234;1251;72734;-67
2024/03/29 03:33:47;;;;;;;29.90;13.40;;;;;;;15.49;54.53;98983.73;108295;1251;61244;-67
2024/03/29 03:36:15;;;;;;;33.20;13.00;;;;;;;15.44;54.44;98989.59;108226;1251;59845;-66
2024/03/29 03:38:42;;;;;;;32.10;13.50;;;;;;;15.55;54.15;98987.39;108263;1254;73751;-68
2024/03/29 03:41:10;;;;;;;38.40;18.10;;;;;;;15.68;53.86;98985.48;108297;1251;69980;-68
2024/03/29 03:43:37;;;;;;;39.80;17.30;;;;;;;15.77;53.62;98985.79;108295;1254;70660;-67
2024/03/29 03:46:05;;;;;;;43.70;18.90;;;;;;;15.63;53.72;98981.83;108259;1250;61132;-67
2024/03/29 03:48:32;;;;;;;44.10;19.70;;;;;;;15.58;53.77;98985.55;108398;1251;61273;-68
2024/03/29 03:50:59;;;;;;;47.10;21.80;;;;;;;15.44;54.11;98986.95;108266;1250;74703;-68
2024/03/29 03:53:27;;;;;;;46.00;20.00;;;;;;;15.54;53.72;98990.25;108366;1251;70406;-68
2024/03/29 03:55:54;;;;;;;53.30;21.70;;;;;;;15.60;53.37;98990.36;108360;1252;72245;-68
2024/03/29 03:58:21;;;;;;;35.90;18.00;;;;;;;15.54;53.43;98992.60;108296;1251;61467;-68
2024/03/29 04:00:48;;;;;;;39.70;18.00;;;;;;;15.53;53.35;98987.73;108316;1251;61095;-68
2024/03/29 04:03:16;;;;;;;33.70;14.80;;;;;;;15.45;53.45;98986.17;108349;1251;74625;-68
2024/03/29 04:05:43;;;;;;;33.20;14.10;;;;;;;15.38;53.57;98984.95;108418;1251;68960;-67
2024/03/29 04:08:11;;;;;;;40.60;15.90;;;;;;;15.62;53.12;98981.54;108277;1251;72594;-68
2024/03/29 04:10:39;;;;;;;30.20;12.80;;;;;;;15.47;53.23;98980.89;108367;1253;61330;-68
2024/03/29 04:13:06;;;;;;;34.50;14.00;;;;;;;15.42;53.22;98976.15;108331;1251;61087;-67
2024/03/29 04:15:33;;;;;;;28.40;13.90;;;;;;;15.50;53.09;98976.64;108322;1251;73390;-69
2024/03/29 04:18:00;;;;;;;31.20;13.50;;;;;;;15.69;52.63;98971.98;108345;1251;70112;-69
2024/03/29 04:20:28;;;;;;;29.30;13.10;;;;;;;15.76;52.38;98974.33;108324;1251;72714;-68
2024/03/29 04:22:55;;;;;;;30.10;12.40;;;;;;;15.72;52.46;98970.88;108391;1251;61863;-68
2024/03/29 04:25:22;;;;;;;25.60;13.10;;;;;;;15.78;52.29;98977.90;108364;1251;60471;-68
2024/03/29 04:27:49;;;;;;;33.30;15.00;;;;;;;15.93;51.93;98977.46;108292;1251;74644;-67
2024/03/29 04:30:17;;;;;;;31.00;13.60;;;;;;;16.02;51.75;98974.45;108295;1251;69389;-68
2024/03/29 04:32:44;;;;;;;33.10;14.40;;;;;;;16.21;51.50;98975.23;108305;1251;72460;-67
2024/03/29 04:35:11;;;;;;;28.10;12.90;;;;;;;16.42;50.81;98974.09;108341;1251;61314;-68
2024/03/29 04:37:39;;;;;;;29.70;14.10;;;;;;;16.50;50.15;98975.27;108378;1251;60025;-68
2024/03/29 04:40:07;;;;;;;24.80;13.40;;;;;;;16.51;49.92;98977.33;108389;1251;73656;-67
2024/03/29 04:42:34;;;;;;;26.60;10.80;;;;;;;16.41;50.00;98976.30;108343;1251;70032;-68
2024/03/29 04:45:04;;;;;;;21.30;10.40;;;;;;;16.45;49.74;98981.34;108330;1251;72743;-66
2024/03/29 04:47:31;;;;;;;21.20;9.40;;;;;;;16.42;49.80;98976.78;108364;1251;61337;-68
2024/03/29 04:49:58;;;;;;;25.20;9.20;;;;;;;16.32;49.78;98978.45;108342;1251;61807;-69
2024/03/29 04:52:26;;;;;;;25.10;9.80;;;;;;;16.50;49.36;98978.98;108355;1251;73698;-67
2024/03/29 04:54:53;;;;;;;14.60;8.40;;;;;;;16.61;49.07;98980.38;108451;1251;69319;-69
2024/03/29 04:57:20;;;;;;;25.80;9.70;;;;;;;16.33;49.46;98984.95;108336;1251;71935;-68
2024/03/29 04:59:48;;;;;;;21.70;9.50;;;;;;;16.19;49.70;98985.02;108310;1251;61120;-66
2024/03/29 05:02:15;;;;;;;24.80;10.30;;;;;;;16.19;49.85;98987.45;108334;1251;61069;-68
2024/03/29 05:04:42;;;;;;;20.60;8.20;;;;;;;16.46;49.23;98981.55;108342;1251;74538;-67
2024/03/29 05:07:10;;;;;;;22.40;9.00;;;;;;;16.45;49.14;98982.94;108339;1256;68817;-68
2024/03/29 05:09:37;;;;;;;20.60;9.90;;;;;;;16.49;48.96;98981.52;108342;1251;72600;-69
2024/03/29 05:12:05;;;;;;;18.30;9.10;;;;;;;16.57;48.67;98985.52;108321;1252;61343;-69
2024/03/29 05:14:32;;;;;;;23.50;10.60;;;;;;;16.63;48.67;98987.51;108325;1251;61207;-67
2024/03/29 05:16:59;;;;;;;29.30;10.70;;;;;;;16.53;48.58;98994.48;108361;1253;74592;-68
2024/03/29 05:19:26;;;;;;;20.40;10.10;;;;;;;16.66;48.16;98995.62;108336;1251;69496;-68
2024/03/29 05:21:54;;;;;;;24.40;10.40;;;;;;;16.57;48.48;98996.86;108311;1253;71379;-68
2024/03/29 05:24:21;;;;;;;26.10;11.30;;;;;;;16.74;47.83;98998.64;108290;1253;61355;-67
2024/03/29 05:26:48;;;;;;;21.20;9.40;;;;;;;16.82;47.71;98996.12;108285;1251;61099;-66
2024/03/29 05:29:16;;;;;;;21.80;9.50;;;;;;;16.81;47.50;98989.95;108262;1251;74663;-68
2024/03/29 05:31:43;;;;;;;26.00;9.00;;;;;;;16.94;47.17;98990.31;108190;1251;70312;-71
2024/03/29 05:34:10;;;;;;;26.30;9.50;;;;;;;17.00;46.91;98989.84;108159;1255;71846;-65
2024/03/29 05:36:37;;;;;;;27.70;9.90;;;;;;;17.14;46.41;98993.88;108196;1253;61141;-68
2024/03/29 05:39:05;;;;;;;19.80;8.30;;;;;;;17.27;46.21;98991.20;108221;1254;61285;-67
2024/03/29 05:41:34;;;;;;;25.50;9.30;;;;;;;17.32;46.09;98988.86;108141;1253;74734;-68
2024/03/29 05:44:04;;;;;;;25.70;10.30;;;;;;;17.47;45.81;98989.92;108080;1254;69290;-68
2024/03/29 05:46:31;;;;;;;19.10;8.70;;;;;;;17.49;45.69;98996.09;108125;1253;72728;-67
2024/03/29 05:48:58;;;;;;;26.30;11.20;;;;;;;17.58;45.40;98996.23;108143;1254;61130;-68
2024/03/29 05:51:25;;;;;;;26.70;11.40;;;;;;;17.57;45.32;98997.58;108193;1253;61100;-69
2024/03/29 05:53:53;;;;;;;28.10;11.10;;;;;;;17.49;45.33;98991.83;108172;1252;74646;-68
2024/03/29 05:56:21;;;;;;;30.60;11.70;;;;;;;17.48;45.24;98992.50;108152;1253;69303;-69
2024/03/29 05:58:48;;;;;;;25.30;11.10;;;;;;;17.68;45.12;98992.74;108115;1253;71078;-70
2024/03/29 06:01:15;;;;;;;26.50;11.30;;;;;;;17.66;45.17;98993.94;108129;1253;61463;-70
2024/03/29 06:03:42;;;;;;;31.50;12.70;;;;;;;17.70;45.13;98994.36;108191;1256;59948;-69
2024/03/29 06:08:23;;;;;;;29.40;12.00;;;;;;;14.87;51.14;98997.41;104948;1290;600788;-68
2024/03/29 06:10:52;;;;;;;33.10;12.10;;;;;;;15.64;49.39;98974.29;107294;1263;59680;-68
2024/03/29 06:19:02;;;;;;;21.90;9.10;;;;;;;16.17;48.48;98975.60;107296;1263;70317;-68
2024/03/29 06:21:32;;;;;;;18.40;9.40;;;;;;;16.17;48.52;98991.31;107554;1256;179323;-68
2024/03/29 06:23:59;;;;;;;23.60;9.30;;;;;;;16.19;48.31;98978.98;107887;1256;60336;-66
2024/03/29 06:26:26;;;;;;;27.80;10.20;;;;;;;16.08;48.64;98983.65;107887;1255;60143;-67
2024/03/29 06:28:54;;;;;;;24.40;9.00;;;;;;;16.01;49.05;99008.83;107884;1257;72460;-65
2024/03/29 06:31:21;;;;;;;24.50;9.80;;;;;;;16.09;48.80;99014.05;107875;1257;69207;-68
2024/03/29 06:33:48;;;;;;;19.60;9.00;;;;;;;16.29;48.49;99012.14;108024;1253;71500;-68
2024/03/29 06:36:15;;;;;;;21.30;10.20;;;;;;;16.45;47.86;99027.41;107970;1259;60724;-67
2024/03/29 06:38:43;;;;;;;24.60;9.30;;;;;;;16.39;48.34;99034.42;108008;1253;61862;-67
2024/03/29 06:41:10;;;;;;;19.50;8.70;;;;;;;16.45;48.35;99028.25;107992;1253;75615;-69
2024/03/29 06:43:46;;;;;;;23.80;10.10;;;;;;;16.38;48.41;99036.27;107982;1253;71541;-69
2024/03/29 06:46:14;;;;;;;23.80;9.80;;;;;;;16.25;48.98;99044.73;107942;1254;71517;-69
2024/03/29 06:48:41;;;;;;;27.00;11.30;;;;;;;16.34;48.82;99048.05;107951;1253;60336;-69
2024/03/29 06:51:09;;;;;;;30.10;12.60;;;;;;;16.47;48.57;99046.70;107969;1253;60425;-68
2024/03/29 06:53:37;;;;;;;36.00;13.70;;;;;;;16.38;48.68;99038.34;108179;1251;73301;-67
2024/03/29 06:56:05;;;;;;;31.30;12.40;;;;;;;16.45;48.56;99037.63;108266;1250;72731;-69
2024/03/29 06:58:32;;;;;;;31.60;12.10;;;;;;;16.33;48.51;99041.83;108179;1253;73672;-68
2024/03/29 07:01:05;;;;;;;33.50;11.40;;;;;;;16.37;48.15;99045.71;108083;1251;60396;-69
2024/03/29 07:03:32;;;;;;;25.20;9.40;;;;;;;16.38;48.03;99056.95;108177;1251;60316;-67
2024/03/29 07:05:59;;;;;;;20.10;8.90;;;;;;;16.20;48.23;99070.90;108173;1250;73150;-69
2024/03/29 07:08:27;;;;;;;22.70;9.70;;;;;;;16.25;48.07;99077.98;108133;1257;72465;-67
2024/03/29 07:11:01;;;;;;;23.60;9.70;;;;;;;16.16;48.36;99073.95;108124;1250;74864;-69
2024/03/29 07:13:30;;;;;;;26.80;9.60;;;;;;;16.25;48.38;99073.26;108125;1251;62823;-68
2024/03/29 07:15:58;;;;;;;26.60;10.10;;;;;;;16.23;48.34;99080.29;108128;1250;60096;-69
2024/03/29 07:18:27;;;;;;;23.20;9.00;;;;;;;16.29;48.58;99075.06;108109;1253;73899;-68
2024/03/29 07:20:55;;;;;;;26.20;10.60;;;;;;;16.39;48.03;99074.29;108156;1252;71313;-68
2024/03/29 07:23:22;;;;;;;25.20;10.20;;;;;;;16.46;47.97;99077.43;108137;1252;71495;-68
2024/03/29 07:26:00;;;;;;;26.20;9.10;;;;;;;16.60;47.87;99077.95;108155;1252;61758;-67
2024/03/29 07:28:27;;;;;;;21.70;9.20;;;;;;;16.60;47.83;99076.33;108153;1252;60427;-68
2024/03/29 07:30:55;;;;;;;17.90;8.80;;;;;;;16.57;48.29;99073.35;108198;1251;74073;-69
2024/03/29 07:33:26;;;;;;;19.70;8.70;;;;;;;16.58;48.76;99071.54;108148;1253;69116;-68
2024/03/29 07:35:53;;;;;;;24.40;9.50;;;;;;;16.83;48.26;99067.77;108137;1253;72811;-69
2024/03/29 07:38:21;;;;;;;24.70;8.50;;;;;;;17.01;48.47;99072.58;108078;1252;61803;-69
2024/03/29 07:40:50;;;;;;;26.10;8.90;;;;;;;17.09;48.11;99071.91;108146;1253;60319;-70
2024/03/29 07:43:21;;;;;;;24.80;9.20;;;;;;;17.15;48.40;99068.07;108127;1252;75013;-69
2024/03/29 07:45:49;;;;;;;22.40;8.90;;;;;;;17.20;48.60;99066.79;108068;1253;70443;-69
2024/03/29 07:48:16;;;;;;;23.50;9.00;;;;;;;17.24;48.22;99074.86;108095;1253;75419;-69
2024/03/29 07:50:45;;;;;;;18.00;8.40;;;;;;;17.13;49.06;99069.52;108075;1253;61725;-70
2024/03/29 07:53:12;;;;;;;18.20;9.20;;;;;;;17.07;49.36;99072.30;108096;1253;60275;-69
2024/03/29 07:55:41;;;;;;;32.30;10.50;;;;;;;17.06;49.71;99076.05;108102;1253;74253;-69
2024/03/29 07:58:09;;;;;;;20.30;9.10;;;;;;;17.07;49.78;99072.10;108000;1253;70514;-69
2024/03/29 08:00:40;;;;;;;22.30;10.20;;;;;;;17.00;49.93;99081.84;108117;1254;72662;-69
2024/03/29 08:03:07;;;;;;;31.00;11.30;;;;;;;16.89;50.85;99084.91;108118;1253;62082;-68
2024/03/29 08:05:35;;;;;;;19.20;9.70;;;;;;;16.90;50.69;99085.90;108079;1257;60411;-69
2024/03/29 08:08:03;;;;;;;39.50;15.20;;;;;;;16.78;51.20;99090.21;108115;1253;72911;-68
2024/03/29 08:10:31;;;;;;;34.80;15.50;;;;;;;16.61;52.10;99088.84;108061;1252;72699;-69
2024/03/29 08:12:59;;;;;;;36.40;16.90;;;;;;;16.44;52.67;99090.17;108026;1253;72707;-70
2024/03/29 08:15:27;;;;;;;35.00;15.50;;;;;;;16.47;52.62;99089.70;108062;1253;61506;-69
2024/03/29 08:17:54;;;;;;;39.90;14.10;;;;;;;16.51;52.56;99083.42;108114;1252;60351;-69
2024/03/29 08:20:29;;;;;;;33.90;15.20;;;;;;;16.45;52.79;99079.80;108121;1253;73069;-68
2024/03/29 08:22:58;;;;;;;27.50;13.10;;;;;;;16.46;53.13;99073.52;108103;1252;72663;-70
2024/03/29 08:25:29;;;;;;;35.40;15.90;;;;;;;16.52;52.99;99071.80;107933;1253;72958;-69
2024/03/29 08:27:59;;;;;;;35.00;16.20;;;;;;;16.68;52.69;99071.48;107997;1253;61709;-69
2024/03/29 08:30:31;;;;;;;46.20;20.10;;;;;;;16.66;52.77;99060.13;108034;1253;61042;-68
2024/03/29 08:32:59;;;;;;;43.60;20.50;;;;;;;16.71;52.96;99051.89;108019;1253;75365;-69
2024/03/29 08:35:27;;;;;;;49.60;20.20;;;;;;;16.71;53.03;99044.45;108089;1253;72537;-69
2024/03/29 08:37:54;;;;;;;37.50;17.80;;;;;;;16.73;53.06;99047.33;108121;1252;74982;-67
2024/03/29 08:40:22;;;;;;;33.70;16.40;;;;;;;16.69;53.15;99046.39;108065;1255;60177;-66
2024/03/29 08:42:50;;;;;;;32.10;14.00;;;;;;;16.71;53.16;99053.71;108103;1252;59174;-68
2024/03/29 08:45:18;;;;;;;33.30;15.90;;;;;;;16.73;52.89;99063.25;108135;1253;76249;-67
2024/03/29 08:47:45;;;;;;;33.00;14.10;;;;;;;16.58;53.23;99049.78;107993;1252;72768;-66
2024/03/29 08:50:13;;;;;;;39.90;15.40;;;;;;;16.63;53.28;99051.31;108070;1253;74945;-69
2024/03/29 08:52:41;;;;;;;33.00;16.10;;;;;;;16.57;53.66;99049.84;108076;1253;60296;-68
2024/03/29 08:55:09;;;;;;;31.80;15.00;;;;;;;16.53;53.75;99037.38;108131;1253;60221;-68
2024/03/29 08:57:36;;;;;;;31.10;15.70;;;;;;;16.36;54.19;99043.66;108105;1252;73197;-68
2024/03/29 09:00:04;;;;;;;30.80;15.20;;;;;;;16.32;54.50;99039.02;108100;1253;72566;-70
2024/03/29 09:02:32;;;;;;;28.90;13.40;;;;;;;16.36;54.59;99014.99;108084;1252;72346;-69
2024/03/29 09:04:59;;;;;;;31.20;13.40;;;;;;;16.34;54.69;99009.13;108101;1253;62086;-69
2024/03/29 09:07:26;;;;;;;25.90;12.70;;;;;;;16.34;54.80;99015.10;108145;1253;60456;-70
2024/03/29 09:09:54;;;;;;;21.10;11.70;;;;;;;16.40;54.66;99020.89;108141;1254;76421;-69
2024/03/29 09:12:21;;;;;;;29.10;13.80;;;;;;;16.30;54.76;99021.64;108199;1253;72600;-69
2024/03/29 09:14:50;;;;;;;19.90;11.90;;;;;;;16.17;55.24;99024.42;108185;1258;72786;-68
2024/03/29 09:17:21;;;;;;;30.90;12.40;;;;;;;16.23;54.93;99021.81;108200;1252;63253;-68
2024/03/29 09:19:51;;;;;;;23.70;11.90;;;;;;;16.27;55.03;99017.11;108051;1253;60425;-67
2024/03/29 09:22:22;;;;;;;21.80;9.80;;;;;;;16.33;55.25;99011.31;108234;1253;73963;-70
2024/03/29 09:24:49;;;;;;;23.10;11.00;;;;;;;16.31;55.34;98997.50;108233;1252;72829;-69
2024/03/29 09:27:17;;;;;;;22.30;9.90;;;;;;;16.38;55.43;98984.87;108197;1257;72557;-67
2024/03/29 09:29:48;;;;;;;20.40;10.70;;;;;;;16.32;55.51;98976.31;108202;1252;62991;-69
2024/03/29 09:32:19;;;;;;;27.60;9.50;;;;;;;16.30;55.69;98983.95;108181;1253;62183;-70
2024/03/29 09:34:47;;;;;;;20.40;9.20;;;;;;;16.35;55.55;98978.41;108169;1250;74285;-70
2024/03/29 09:37:15;;;;;;;25.20;10.40;;;;;;;16.35;55.54;98976.41;108210;1250;70579;-69
2024/03/29 09:39:42;;;;;;;30.30;12.00;;;;;;;16.40;55.51;98985.39;108247;1256;71465;-69
2024/03/29 09:42:13;;;;;;;25.60;10.70;;;;;;;16.45;55.52;98986.66;108226;1250;63011;-69
2024/03/29 09:44:41;;;;;;;23.80;13.20;;;;;;;16.52;55.32;98987.16;108092;1250;60600;-70
2024/03/29 09:47:08;;;;;;;30.10;12.70;;;;;;;16.47;55.65;98978.52;108221;1250;74232;-69
2024/03/29 09:49:35;;;;;;;31.10;12.90;;;;;;;16.37;55.84;98975.71;108245;1250;72660;-69
2024/03/29 09:52:05;;;;;;;27.20;13.60;;;;;;;16.26;56.14;98970.77;108196;1250;70842;-68
2024/03/29 09:54:33;;;;;;;33.10;15.00;;;;;;;16.10;56.76;98963.50;108153;1250;61140;-69
2024/03/29 09:57:01;;;;;;;34.10;13.20;;;;;;;16.21;56.50;98970.84;108282;1256;60459;-68
2024/03/29 09:59:28;;;;;;;27.50;13.40;;;;;;;16.33;56.30;98977.67;108223;1250;75886;-68
2024/03/29 10:01:56;;;;;;;20.40;11.40;;;;;;;16.24;56.68;98989.56;108202;1250;70437;-67
2024/03/29 10:04:26;;;;;;;23.30;12.60;;;;;;;16.23;56.85;99003.27;108256;1250;75117;-68
2024/03/29 10:06:54;;;;;;;30.10;14.30;;;;;;;16.14;57.56;99006.79;108207;1252;60158;-70
2024/03/29 10:09:22;;;;;;;28.50;13.70;;;;;;;16.20;57.05;98999.63;108112;1250;60458;-68
2024/03/29 10:11:49;;;;;;;28.30;14.60;;;;;;;16.15;57.31;99000.30;108072;1250;72859;-69
2024/03/29 10:14:17;;;;;;;21.70;12.80;;;;;;;16.17;57.45;98998.41;108167;1250;70652;-68
2024/03/29 10:16:45;;;;;;;31.40;17.00;;;;;;;16.30;57.41;98989.40;108181;1250;75303;-69
2024/03/29 10:19:12;;;;;;;36.40;17.20;;;;;;;16.44;57.62;98987.79;108194;1250;62915;-69
2024/03/29 10:21:39;;;;;;;33.90;15.10;;;;;;;16.62;57.69;98989.88;108227;1250;61191;-69
2024/03/29 10:24:12;;;;;;;29.90;16.00;;;;;;;16.71;57.77;98993.24;108143;1250;76836;-69
2024/03/29 10:26:41;;;;;;;25.30;12.30;;;;;;;17.01;57.76;98996.74;108206;1250;69447;-70
2024/03/29 10:29:08;;;;;;;34.00;16.40;;;;;;;17.17;57.39;98992.77;108286;1250;72901;-69
2024/03/29 10:31:36;;;;;;;34.40;16.50;;;;;;;17.29;56.76;99000.25;108106;1253;61154;-69
2024/03/29 10:34:05;;;;;;;29.60;14.30;;;;;;;17.31;55.96;98997.58;108220;1250;61159;-69
2024/03/29 10:36:35;;;;;;;25.40;13.70;;;;;;;17.47;54.98;99000.73;108177;1251;72666;-67
2024/03/29 10:39:11;;;;;;;24.30;12.60;;;;;;;17.43;54.70;99001.03;108215;1253;69484;-69
2024/03/29 10:41:44;;;;;;;22.80;10.30;;;;;;;17.30;54.63;99013.61;108106;1251;71433;-73
2024/03/29 10:44:14;;;;;;;25.60;12.80;;;;;;;17.39;54.30;99024.09;108021;1253;62317;-68
2024/03/29 10:46:42;;;;;;;23.30;11.90;;;;;;;17.52;54.37;99028.02;108166;1251;62081;-67
2024/03/29 10:49:11;;;;;;;27.70;13.90;;;;;;;17.59;54.16;99035.53;108172;1251;73682;-69
2024/03/29 10:51:41;;;;;;;30.40;15.10;;;;;;;17.54;54.16;99028.53;108203;1251;69880;-68
2024/03/29 10:54:10;;;;;;;22.90;11.30;;;;;;;17.39;54.43;99024.93;108036;1253;71487;-68
2024/03/29 10:56:37;;;;;;;25.80;13.10;;;;;;;17.48;54.05;99026.20;108137;1251;62630;-69
2024/03/29 10:59:37;;;;;;;34.60;13.80;;;;;;;17.66;53.69;99029.48;108191;1253;62112;-69
2024/03/29 11:02:12;;;;;;;25.40;11.80;;;;;;;17.69;53.42;99027.09;108132;1251;74940;-68
2024/03/29 11:04:40;;;;;;;30.40;13.00;;;;;;;17.56;53.72;99031.36;108244;1257;70287;-69
2024/03/29 11:07:13;;;;;;;22.10;14.20;;;;;;;17.45;54.03;99030.73;107982;1251;73707;-69
2024/03/29 11:09:40;;;;;;;30.30;15.40;;;;;;;17.46;54.35;99027.95;108162;1253;61096;-70
2024/03/29 11:12:08;;;;;;;25.90;15.10;;;;;;;17.41;54.57;99027.80;107937;1253;61182;-70
2024/03/29 11:14:40;;;;;;;29.70;14.20;;;;;;;17.44;54.72;99032.72;108140;1251;74389;-69
2024/03/29 11:17:07;;;;;;;28.30;14.40;;;;;;;17.54;54.51;99034.73;108129;1251;72633;-69
2024/03/29 11:19:35;;;;;;;28.20;15.50;;;;;;;17.55;54.51;99036.79;108123;1253;72850;-69
2024/03/29 11:22:03;;;;;;;22.20;12.10;;;;;;;17.52;54.73;99041.59;108095;1258;61165;-69
2024/03/29 11:24:30;;;;;;;30.10;15.40;;;;;;;17.65;54.25;99043.36;108000;1251;62183;-69
2024/03/29 11:26:57;;;;;;;34.00;16.30;;;;;;;17.63;54.51;99047.79;107949;1253;76908;-69